Airfield :
LOGIN :

Register | Disclaimer

   EN    FR    IT 

 










Legend :    VFR   Marginal VFR   IFR   Intensive IFR   Very Intensive IFR
Visi :
Ceiling :
>= 8 km
>= 3000ft
5 to 8 km
1000 to 3000 ft
1500m to 5 km
500 to 1000 ft
800 to 1500m
200 to 500 ft
< 800m
< 200 ft
Symbols :   Thunderstorms  Fog  Heavy snow  Heavy precipitations  Wind > 20 kt
SIGMETs :     Misc.  Thunderstorms  Icing  Turbulence  Mountain Waves  Volcanic Ashes






- Airport Elevation : 0 ft


ENOA - Oseberg A Platform

CURRENT METAR :
  • 301650Z 35029KT 9999 SCT020 BKN140 07/03 Q1009 W///S5

EXPIRED METARs :
  • 301620Z 35029KT 9999 SCT020 BKN025 BKN130 07/03 Q1009 W///S4
  • 301550Z 35030KT 9999 BKN020 BKN130 07/02 Q1008 W///S4
  • 301520Z 35030KT 9999 FEW020 SCT035 BKN120 07/04 Q1008 W///S4
  • 301450Z 34029KT 9999 FEW025 BKN090 08/03 Q1007 W///S5
  • 301420Z 35028KT 9999 FEW026 BKN086 08/03 Q1007 W///S5

TAF ENOA
Valid from the 30 at 15:00 until the 01 at 15:00 UTC


3015/0115 35035KT 9999 -SHRA FEW010 BKN030
BECMG 0104/0106 36025KT
BECMG 0108/0110 01015KT
TEMPO 0111/0115 VRB08KT



MET'MAP, your aeronautical weather chart ! - Copyright ORBIFLY December 2007 - Disclaimer

ORBIFLY MET'MAP TEAM :

Programming & Development : Alexandra Zaïnal
Concept & original design : Baudouin d'Aumeries
Assistance for programming : Marc-Olivier Méhu
Technical & hardware support : Manuel Goepfert

Contact : metmap@orbifly.com




SOURCES & CREDITS :

   NOAA